createdAt,value
2019-03-12T00:01:16.065Z,64.47
2019-03-12T00:03:43.447Z,64.73
2019-03-12T00:06:10.875Z,64.80
2019-03-12T00:08:38.251Z,64.53
2019-03-12T00:11:05.676Z,64.40
2019-03-12T00:13:33.092Z,64.30
2019-03-12T00:16:00.486Z,64.17
2019-03-12T00:18:28.517Z,64.38
2019-03-12T00:20:55.286Z,64.48
2019-03-12T00:23:22.682Z,64.50
2019-03-12T00:25:50.084Z,64.34
2019-03-12T00:28:18.412Z,64.20
2019-03-12T00:30:45.796Z,64.05
2019-03-12T00:33:13.191Z,64.03
2019-03-12T00:35:40.589Z,64.16
2019-03-12T00:38:08.004Z,64.15
2019-03-12T00:40:35.410Z,64.03
2019-03-12T00:43:02.870Z,64.18
2019-03-12T00:45:30.269Z,64.76
2019-03-12T00:47:57.687Z,64.66
2019-03-12T00:50:25.088Z,64.83
2019-03-12T00:52:52.472Z,65.01
2019-03-12T00:55:19.880Z,65.40
2019-03-12T00:57:47.264Z,65.69
2019-03-12T01:00:17.534Z,65.80
2019-03-12T01:02:44.912Z,65.81
2019-03-12T01:05:12.307Z,65.84
2019-03-12T01:07:39.900Z,65.73
2019-03-12T01:10:16.006Z,65.64
2019-03-12T01:12:43.698Z,65.61
2019-03-12T01:15:11.894Z,65.73
2019-03-12T01:17:39.301Z,65.44
2019-03-12T01:20:06.706Z,65.34
2019-03-12T01:22:34.096Z,65.66
2019-03-12T01:25:01.511Z,65.95
2019-03-12T01:27:28.962Z,65.84
2019-03-12T01:29:56.417Z,65.82
2019-03-12T01:32:23.859Z,65.78
2019-03-12T01:34:51.271Z,65.64
2019-03-12T01:37:18.782Z,65.81
2019-03-12T01:39:46.287Z,66.01
2019-03-12T01:42:13.693Z,66.16
2019-03-12T01:44:41.093Z,66.35
2019-03-12T01:47:08.490Z,66.60
2019-03-12T01:49:35.891Z,66.68
2019-03-12T01:52:03.347Z,66.75
2019-03-12T01:54:30.776Z,66.87
2019-03-12T01:56:58.240Z,67.00
2019-03-12T01:59:25.640Z,67.24
2019-03-12T02:01:53.074Z,67.26
2019-03-12T02:04:20.472Z,66.92
2019-03-12T02:06:47.872Z,66.29
2019-03-12T02:09:15.321Z,65.89
2019-03-12T02:11:42.722Z,66.06
2019-03-12T02:14:20.719Z,66.48
2019-03-12T02:16:48.141Z,66.50
2019-03-12T02:19:15.535Z,66.60
2019-03-12T02:21:42.939Z,66.80
2019-03-12T02:24:10.351Z,66.86
2019-03-12T02:26:37.749Z,67.14
2019-03-12T02:29:05.149Z,67.46
2019-03-12T02:31:32.569Z,67.72
2019-03-12T02:33:59.952Z,67.57
2019-03-12T02:36:27.379Z,67.54
2019-03-12T02:38:54.786Z,67.50
2019-03-12T02:41:22.346Z,67.41
2019-03-12T02:43:49.760Z,67.47
2019-03-12T02:46:17.337Z,67.50
2019-03-12T02:48:44.739Z,67.78
2019-03-12T02:51:12.136Z,68.21
2019-03-12T02:53:39.529Z,68.51
2019-03-12T02:56:06.941Z,68.55
2019-03-12T02:58:34.503Z,68.81
2019-03-12T03:01:01.960Z,69.04
2019-03-12T03:03:29.367Z,69.33
2019-03-12T03:05:57.616Z,69.71
2019-03-12T03:08:25.019Z,70.00
2019-03-12T03:10:52.503Z,70.00
2019-03-12T03:13:19.913Z,70.04
2019-03-12T03:15:47.314Z,70.12
2019-03-12T03:18:15.594Z,70.16
2019-03-12T03:20:43.067Z,69.85
2019-03-12T03:23:10.813Z,69.68
2019-03-12T03:25:38.200Z,69.73
2019-03-12T03:28:05.596Z,69.81
2019-03-12T03:30:33.028Z,69.82
2019-03-12T03:33:00.473Z,69.92
2019-03-12T03:35:27.886Z,70.20
2019-03-12T03:37:55.293Z,70.27
2019-03-12T03:40:22.716Z,70.33
2019-03-12T03:42:50.117Z,70.55
2019-03-12T03:45:17.630Z,70.62
2019-03-12T03:47:45.053Z,70.53
2019-03-12T03:50:12.565Z,70.37
2019-03-12T03:52:40.014Z,70.37
2019-03-12T03:55:07.429Z,70.36
2019-03-12T03:57:34.829Z,70.38
2019-03-12T04:00:02.393Z,70.07
2019-03-12T04:02:29.831Z,70.05
2019-03-12T04:04:57.272Z,69.91
2019-03-12T04:07:24.659Z,69.87
2019-03-12T04:09:52.106Z,69.57
2019-03-12T04:12:19.490Z,69.50
2019-03-12T04:14:46.884Z,69.26
2019-03-12T04:17:14.329Z,69.05
2019-03-12T04:19:41.718Z,68.73
2019-03-12T04:22:09.185Z,68.67
2019-03-12T04:24:36.567Z,68.78
2019-03-12T04:27:03.959Z,68.81
2019-03-12T04:29:31.501Z,68.72
2019-03-12T04:31:58.889Z,70.11
2019-03-12T04:34:26.265Z,70.48
2019-03-12T04:36:53.695Z,69.40
2019-03-12T04:39:21.087Z,68.60
2019-03-12T04:41:48.483Z,67.50
2019-03-12T04:44:15.874Z,67.11
2019-03-12T04:46:43.278Z,66.79
2019-03-12T04:49:10.671Z,66.49
2019-03-12T04:51:38.059Z,66.28
2019-03-12T04:54:05.479Z,66.14
2019-03-12T04:56:32.879Z,66.70
2019-03-12T04:59:00.327Z,67.39
2019-03-12T05:01:27.722Z,67.49
2019-03-12T05:03:55.107Z,67.36
2019-03-12T05:06:22.503Z,67.21
2019-03-12T05:08:49.945Z,67.74
2019-03-12T05:11:17.327Z,68.05
2019-03-12T05:13:44.870Z,68.43
2019-03-12T05:16:12.262Z,68.87
2019-03-12T05:18:39.659Z,69.39
2019-03-12T05:21:07.182Z,70.08
2019-03-12T05:23:35.469Z,70.34
2019-03-12T05:26:02.861Z,70.07
2019-03-12T05:28:30.265Z,69.92
2019-03-12T05:30:58.569Z,69.86
2019-03-12T05:33:25.978Z,69.56
2019-03-12T05:35:53.417Z,69.33
2019-03-12T05:38:20.976Z,69.28
2019-03-12T05:40:48.377Z,69.23
2019-03-12T05:43:15.782Z,69.04
2019-03-12T05:45:43.166Z,69.06
2019-03-12T05:48:10.575Z,69.19
2019-03-12T05:50:37.967Z,69.37
2019-03-12T05:53:14.530Z,69.63
2019-03-12T05:55:41.926Z,70.33
2019-03-12T05:58:09.327Z,70.13
2019-03-12T06:00:36.798Z,69.51
2019-03-12T06:03:04.219Z,69.78
2019-03-12T06:05:32.484Z,70.17
2019-03-12T06:07:59.872Z,70.48
2019-03-12T06:10:27.443Z,70.45
2019-03-12T06:12:54.890Z,70.48
2019-03-12T06:15:22.282Z,70.45
2019-03-12T06:17:49.825Z,70.40
2019-03-12T06:20:17.273Z,70.21
2019-03-12T06:22:44.751Z,70.07
2019-03-12T06:25:12.143Z,69.68
2019-03-12T06:27:39.642Z,69.30
2019-03-12T06:30:18.237Z,69.01
2019-03-12T06:32:45.672Z,68.61
2019-03-12T06:35:13.084Z,68.08
2019-03-12T06:40:36.993Z,65.90
2019-03-12T06:43:05.292Z,65.77
2019-03-12T06:45:33.176Z,65.68
2019-03-12T06:48:06.294Z,65.51
2019-03-12T06:50:35.197Z,65.51
2019-03-12T06:53:08.392Z,65.18
2019-03-12T06:55:35.861Z,64.91
2019-03-12T06:58:24.768Z,64.77
2019-03-12T07:00:57.104Z,64.74
2019-03-12T07:03:24.552Z,64.66
2019-03-12T07:09:01.927Z,62.97
2019-03-12T07:11:33.640Z,63.73
2019-03-12T07:14:01.827Z,63.56
2019-03-12T07:16:29.291Z,63.10
2019-03-12T07:19:02.248Z,62.44
2019-03-12T07:21:34.133Z,62.25
2019-03-12T07:24:07.265Z,62.07
2019-03-12T07:26:36.572Z,61.67
2019-03-12T07:29:04.324Z,62.21
2019-03-12T07:31:37.190Z,62.81
2019-03-12T07:34:04.598Z,62.43
2019-03-12T07:36:52.737Z,62.13
2019-03-12T07:39:24.157Z,61.06
2019-03-12T07:41:54.517Z,60.53
2019-03-12T07:44:22.007Z,60.32
2019-03-12T07:46:49.423Z,59.50
2019-03-12T07:49:21.266Z,58.67
2019-03-12T07:51:50.679Z,57.71
2019-03-12T07:54:18.362Z,56.90
2019-03-12T07:56:46.668Z,56.27
2019-03-12T07:59:20.009Z,55.82
2019-03-12T08:01:48.299Z,55.50
2019-03-12T08:07:32.800Z,52.51
2019-03-12T08:10:01.339Z,52.89
2019-03-12T08:12:34.182Z,52.45
2019-03-12T08:18:05.746Z,49.65
2019-03-12T08:20:49.976Z,51.28
2019-03-12T08:23:18.849Z,52.17
2019-03-12T08:25:52.426Z,51.91
2019-03-12T08:28:23.919Z,51.62
2019-03-12T08:31:01.694Z,51.70
2019-03-12T08:33:31.263Z,51.74
2019-03-12T08:35:58.199Z,51.42
2019-03-12T08:38:31.237Z,51.43
2019-03-12T08:41:02.230Z,51.41
2019-03-12T08:43:35.209Z,52.21
2019-03-12T08:46:05.216Z,52.46
2019-03-12T08:48:32.623Z,52.64
2019-03-12T08:51:08.598Z,52.45
2019-03-12T08:53:40.838Z,51.66
2019-03-12T08:56:10.201Z,51.32
2019-03-12T08:58:43.512Z,50.95
2019-03-12T09:01:11.682Z,50.83
2019-03-12T09:03:39.127Z,50.82
2019-03-12T09:06:07.032Z,50.29
2019-03-12T09:08:35.180Z,49.98
2019-03-12T09:11:20.657Z,50.21
2019-03-12T09:13:52.361Z,49.86
2019-03-12T09:16:19.415Z,49.54
2019-03-12T09:18:47.739Z,48.72
2019-03-12T09:21:19.740Z,48.00
2019-03-12T09:23:47.140Z,47.11
2019-03-12T09:26:24.517Z,48.11
2019-03-12T09:29:07.718Z,48.46
2019-03-12T09:31:45.042Z,48.97
2019-03-12T09:34:12.479Z,49.36
2019-03-12T09:36:40.215Z,48.96
2019-03-12T09:39:13.175Z,48.55
2019-03-12T09:41:46.209Z,47.72
2019-03-12T09:44:14.742Z,47.16
2019-03-12T09:46:45.958Z,46.51
2019-03-12T09:49:19.008Z,46.02
2019-03-12T09:52:02.313Z,46.31
2019-03-12T09:54:35.563Z,46.11
2019-03-12T09:57:05.832Z,45.94
2019-03-12T09:59:52.916Z,45.49
2019-03-12T10:02:24.933Z,45.92
2019-03-12T10:04:58.111Z,45.61
2019-03-12T10:07:28.085Z,45.49
2019-03-12T10:09:59.063Z,45.64
2019-03-12T10:12:29.140Z,46.08
2019-03-12T10:15:02.219Z,45.73
2019-03-12T10:17:45.445Z,45.03
2019-03-12T10:20:18.574Z,45.02
2019-03-12T10:22:52.486Z,44.62
2019-03-12T10:25:25.939Z,44.40
2019-03-12T10:27:54.331Z,44.64
2019-03-12T10:30:26.339Z,44.50
2019-03-12T10:32:59.719Z,43.96
2019-03-12T10:35:37.006Z,43.57
2019-03-12T10:38:16.015Z,44.08
2019-03-12T10:40:59.208Z,43.86
2019-03-12T10:43:26.645Z,43.41
2019-03-12T10:46:04.624Z,43.18
2019-03-12T10:48:32.321Z,42.67
2019-03-12T10:50:59.812Z,42.42
2019-03-12T10:53:27.376Z,41.36
2019-03-12T10:55:54.822Z,40.88
2019-03-12T10:58:22.413Z,40.95
2019-03-12T11:00:50.262Z,40.45
2019-03-12T11:03:17.672Z,39.21
2019-03-12T11:05:46.417Z,38.35
2019-03-12T11:08:12.727Z,37.69
2019-03-12T11:10:40.145Z,37.38
2019-03-12T11:13:07.569Z,36.36
2019-03-12T11:15:34.981Z,36.15
2019-03-12T11:18:02.394Z,35.22
2019-03-12T11:20:29.839Z,34.40
2019-03-12T11:22:57.272Z,33.86
2019-03-12T11:25:27.646Z,33.91
2019-03-12T11:27:52.175Z,34.02
2019-03-12T11:30:19.689Z,34.10
2019-03-12T11:32:46.702Z,33.95
2019-03-12T11:35:13.801Z,34.44
2019-03-12T11:37:40.930Z,34.01
2019-03-12T11:40:25.294Z,33.06
2019-03-12T11:42:51.869Z,32.80
2019-03-12T11:45:20.441Z,32.64
2019-03-12T11:47:46.376Z,32.58
2019-03-12T11:50:13.546Z,32.29
2019-03-12T11:52:40.620Z,31.64
2019-03-12T11:55:07.629Z,31.45
2019-03-12T11:57:35.441Z,31.52
2019-03-12T12:00:02.446Z,30.65
2019-03-12T12:02:29.895Z,29.95
2019-03-12T12:04:57.962Z,29.54
2019-03-12T12:07:25.409Z,28.96
2019-03-12T12:09:52.849Z,29.03
2019-03-12T12:12:20.233Z,29.08
2019-03-12T12:14:47.665Z,29.04
2019-03-12T12:17:15.180Z,28.72
2019-03-12T12:19:42.648Z,28.19
2019-03-12T12:22:10.046Z,28.44
2019-03-12T12:24:38.314Z,28.00
2019-03-12T12:27:06.143Z,27.73
2019-03-12T12:29:34.259Z,27.67
2019-03-12T12:32:01.250Z,27.46
2019-03-12T12:34:28.239Z,27.98
2019-03-12T12:36:55.203Z,27.41
2019-03-12T12:39:22.143Z,27.02
2019-03-12T12:41:49.258Z,26.70
2019-03-12T12:44:16.214Z,26.49
2019-03-12T12:46:43.655Z,26.67
2019-03-12T12:49:10.623Z,27.06
2019-03-12T12:51:37.629Z,26.83
2019-03-12T12:54:05.055Z,26.63
2019-03-12T12:56:32.702Z,26.56
2019-03-12T12:59:00.132Z,26.56
2019-03-12T13:01:27.558Z,26.71
2019-03-12T13:03:54.989Z,26.39
2019-03-12T13:06:21.965Z,27.17
2019-03-12T13:08:49.513Z,27.62
2019-03-12T13:11:17.066Z,28.42
2019-03-12T13:13:44.503Z,29.50
2019-03-12T13:16:24.104Z,29.96
2019-03-12T13:18:39.414Z,28.86
2019-03-12T13:21:07.056Z,27.81
2019-03-12T13:23:36.199Z,26.92
2019-03-12T13:26:01.907Z,26.36
2019-03-12T13:28:29.582Z,26.40
2019-03-12T13:30:57.078Z,26.93
2019-03-12T13:33:25.435Z,26.93
2019-03-12T13:35:52.875Z,27.30
2019-03-12T13:38:20.929Z,27.06
2019-03-12T13:40:48.461Z,26.50
2019-03-12T13:43:15.931Z,25.80
2019-03-12T13:45:43.327Z,26.48
2019-03-12T13:48:10.766Z,27.89
2019-03-12T13:50:38.315Z,27.16
2019-03-12T13:53:05.640Z,26.64
2019-03-12T13:55:33.473Z,26.16
2019-03-12T13:58:00.524Z,25.55
2019-03-12T14:00:28.269Z,25.22
2019-03-12T14:02:55.690Z,24.63
2019-03-12T14:05:22.709Z,24.37
2019-03-12T14:07:49.651Z,24.39
2019-03-12T14:10:21.408Z,24.82
2019-03-12T14:12:48.381Z,24.30
2019-03-12T14:15:16.323Z,24.02
2019-03-12T14:17:43.329Z,23.45
2019-03-12T14:20:16.242Z,24.00
2019-03-12T14:22:43.187Z,24.54
2019-03-12T14:25:11.104Z,24.79
2019-03-12T14:27:38.117Z,24.62
2019-03-12T14:30:05.069Z,24.00
2019-03-12T14:32:32.370Z,23.03
2019-03-12T14:34:59.332Z,22.50
2019-03-12T14:37:26.889Z,22.48
2019-03-12T14:39:54.442Z,23.07
2019-03-12T14:42:21.936Z,23.19
2019-03-12T14:44:49.509Z,22.93
2019-03-12T14:47:16.979Z,23.18
2019-03-12T14:49:44.484Z,23.83
2019-03-12T14:52:11.953Z,24.50
2019-03-12T14:54:39.523Z,25.01
2019-03-12T14:57:06.962Z,25.45
2019-03-12T14:59:34.499Z,26.55
2019-03-12T15:02:01.959Z,27.09
2019-03-12T15:04:29.675Z,27.69
2019-03-12T15:06:57.723Z,28.00
2019-03-12T15:09:25.145Z,28.21
2019-03-12T15:11:52.617Z,28.06
2019-03-12T15:14:20.047Z,28.04
2019-03-12T15:16:47.511Z,27.87
2019-03-12T15:19:14.958Z,28.67
2019-03-12T15:21:42.475Z,29.03
2019-03-12T15:24:10.798Z,29.10
2019-03-12T15:26:38.316Z,28.89
2019-03-12T15:29:05.717Z,29.08
2019-03-12T15:31:33.195Z,27.89
2019-03-12T15:34:00.586Z,27.94
2019-03-12T15:36:28.104Z,28.69
2019-03-12T15:38:55.527Z,29.55
2019-03-12T15:41:23.602Z,30.50
2019-03-12T15:43:51.029Z,31.07
2019-03-12T15:46:18.491Z,31.17
2019-03-12T15:48:46.013Z,31.12
2019-03-12T15:51:13.492Z,30.89
2019-03-12T15:53:40.941Z,31.02
2019-03-12T15:56:08.473Z,31.50
2019-03-12T15:58:36.142Z,31.73
2019-03-12T16:01:03.603Z,31.90
2019-03-12T16:03:31.059Z,31.69
2019-03-12T16:05:58.456Z,31.79
2019-03-12T16:08:25.865Z,31.76
2019-03-12T16:10:58.344Z,31.90
2019-03-12T16:13:21.170Z,31.71
2019-03-12T16:15:48.612Z,31.90
2019-03-12T16:18:16.276Z,32.59
2019-03-12T16:20:43.694Z,32.71
2019-03-12T16:23:10.652Z,32.91
2019-03-12T16:25:37.586Z,32.58
2019-03-12T16:28:04.607Z,32.40
2019-03-12T16:30:31.567Z,32.72
2019-03-12T16:32:58.703Z,32.95
2019-03-12T16:35:25.691Z,33.16
2019-03-12T16:37:52.648Z,33.82
2019-03-12T16:40:19.698Z,33.88
2019-03-12T16:42:47.078Z,34.06
2019-03-12T16:45:18.178Z,33.86
2019-03-12T16:47:45.687Z,34.20
2019-03-12T16:50:14.095Z,34.43
2019-03-12T16:52:41.662Z,34.37
2019-03-12T16:55:09.074Z,34.55
2019-03-12T16:57:36.673Z,34.79
2019-03-12T17:00:08.370Z,35.46
2019-03-12T17:02:32.408Z,35.48
2019-03-12T17:05:00.710Z,35.38
2019-03-12T17:07:28.334Z,35.69
2019-03-12T17:09:55.764Z,36.50
2019-03-12T17:12:23.269Z,36.26
2019-03-12T17:14:50.679Z,36.57
2019-03-12T17:17:18.099Z,36.81
2019-03-12T17:19:45.520Z,37.83
2019-03-12T17:22:13.075Z,37.81
2019-03-12T17:24:40.475Z,37.93
2019-03-12T17:27:07.883Z,37.26
2019-03-12T17:29:35.288Z,37.21
2019-03-12T17:32:02.745Z,37.23
2019-03-12T17:34:35.697Z,37.30
2019-03-12T17:36:58.696Z,37.40
2019-03-12T17:39:26.202Z,37.61
2019-03-12T17:41:53.648Z,37.81
2019-03-12T17:44:21.118Z,38.00
2019-03-12T17:46:48.512Z,38.11
2019-03-12T17:49:15.955Z,38.09
2019-03-12T17:51:43.445Z,38.25
2019-03-12T17:54:10.798Z,38.36
2019-03-12T17:56:38.295Z,38.35
2019-03-12T17:59:05.709Z,38.50
2019-03-12T18:01:33.102Z,38.59
2019-03-12T18:04:00.513Z,38.74
2019-03-12T18:06:27.952Z,38.91
2019-03-12T18:08:55.402Z,38.98
2019-03-12T18:11:22.815Z,38.95
2019-03-12T18:13:50.215Z,38.82
2019-03-12T18:16:17.656Z,38.88
2019-03-12T18:18:45.109Z,38.70
2019-03-12T18:21:12.514Z,38.36
2019-03-12T18:23:39.932Z,38.23
2019-03-12T18:26:07.475Z,38.32
2019-03-12T18:28:34.885Z,38.00
2019-03-12T18:31:02.318Z,37.90
2019-03-12T18:33:29.847Z,37.89
2019-03-12T18:35:57.341Z,37.52
2019-03-12T18:38:24.807Z,37.32
2019-03-12T18:40:52.280Z,37.22
2019-03-12T18:43:19.739Z,36.76
2019-03-12T18:45:47.150Z,37.07
2019-03-12T18:48:14.626Z,36.88
2019-03-12T18:50:42.047Z,36.74
2019-03-12T18:53:09.523Z,36.86
2019-03-12T18:55:39.018Z,36.94
2019-03-12T18:58:06.449Z,36.94
2019-03-12T19:00:33.859Z,36.76
2019-03-12T19:03:01.327Z,36.62
2019-03-12T19:05:29.707Z,36.29
2019-03-12T19:07:57.117Z,35.21
2019-03-12T19:10:24.759Z,34.71
2019-03-12T19:12:52.157Z,34.59
2019-03-12T19:15:19.575Z,34.15
2019-03-12T19:17:47.019Z,33.95
2019-03-12T19:20:15.329Z,34.17
2019-03-12T19:22:42.725Z,33.98
2019-03-12T19:25:11.856Z,33.70
2019-03-12T19:27:39.345Z,33.59
2019-03-12T19:30:11.554Z,33.74
2019-03-12T19:32:39.769Z,33.77
2019-03-12T19:35:10.086Z,33.80
2019-03-12T19:37:37.542Z,33.75
2019-03-12T19:40:07.531Z,33.86
2019-03-12T19:42:34.965Z,33.92
2019-03-12T19:45:02.364Z,33.94
2019-03-12T19:47:30.292Z,33.98
2019-03-12T19:49:57.694Z,33.69
2019-03-12T19:52:25.090Z,33.60
2019-03-12T19:54:52.487Z,33.73
2019-03-12T19:57:19.909Z,33.61
2019-03-12T19:59:47.433Z,33.53
2019-03-12T20:02:16.617Z,33.51
2019-03-12T20:04:47.496Z,33.53
2019-03-12T20:07:10.648Z,33.62
2019-03-12T20:09:38.060Z,33.60
2019-03-12T20:12:17.185Z,33.59
2019-03-12T20:17:54.341Z,33.23
2019-03-12T20:20:30.123Z,33.29
2019-03-12T20:23:03.471Z,33.43
2019-03-12T20:25:43.330Z,33.61
2019-03-12T20:31:43.319Z,32.26
2019-03-12T20:37:47.001Z,31.98
2019-03-12T20:43:38.332Z,30.43
2019-03-12T20:49:15.790Z,29.40
2019-03-12T20:51:50.724Z,29.50
2019-03-12T20:54:25.983Z,29.43
2019-03-12T20:56:59.210Z,29.30
2019-03-12T20:59:50.332Z,28.90
2019-03-12T21:02:33.492Z,28.72
2019-03-12T21:11:32.125Z,27.23
2019-03-12T21:14:11.174Z,27.62
2019-03-12T21:16:44.063Z,27.77
2019-03-12T21:19:13.287Z,28.04
2019-03-12T21:21:42.492Z,28.27
2019-03-12T21:24:12.076Z,28.49
2019-03-12T21:26:48.157Z,28.66
2019-03-12T21:29:27.338Z,28.50
2019-03-12T21:31:54.815Z,28.36
2019-03-12T21:34:22.256Z,28.39
2019-03-12T21:36:49.661Z,28.23
2019-03-12T21:39:17.093Z,28.19
2019-03-12T21:41:44.532Z,28.00
2019-03-12T21:44:12.086Z,27.93
2019-03-12T21:46:39.618Z,27.82
2019-03-12T21:49:07.059Z,27.81
2019-03-12T21:51:34.507Z,27.81
2019-03-12T21:54:01.911Z,27.61
2019-03-12T21:56:29.329Z,27.47
2019-03-12T21:58:56.716Z,27.46
2019-03-12T22:01:24.157Z,27.49
2019-03-12T22:03:51.615Z,27.61
2019-03-12T22:06:19.024Z,27.51
2019-03-12T22:08:46.701Z,27.46
2019-03-12T22:11:14.131Z,27.62
2019-03-12T22:13:41.535Z,27.68
2019-03-12T22:16:08.923Z,27.71
2019-03-12T22:18:36.614Z,27.71
2019-03-12T22:21:04.022Z,27.82
2019-03-12T22:23:47.145Z,27.78
2019-03-12T22:26:14.691Z,27.72
2019-03-12T22:28:42.162Z,27.70
2019-03-12T22:31:09.495Z,27.64
2019-03-12T22:33:37.050Z,27.72
2019-03-12T22:36:04.429Z,27.79
2019-03-12T22:38:31.861Z,27.64
2019-03-12T22:40:59.243Z,27.66
2019-03-12T22:43:26.641Z,27.58
2019-03-12T22:45:54.057Z,27.55
2019-03-12T22:48:21.456Z,27.44
2019-03-12T22:50:48.871Z,27.26
2019-03-12T22:53:16.282Z,27.18
2019-03-12T22:55:43.676Z,27.26
2019-03-12T22:58:11.093Z,27.44
2019-03-12T23:00:38.533Z,27.50
2019-03-12T23:03:05.947Z,27.65
2019-03-12T23:05:33.366Z,27.75
2019-03-12T23:08:00.808Z,27.90
2019-03-12T23:10:28.228Z,28.02
2019-03-12T23:12:55.621Z,28.05
2019-03-12T23:15:23.053Z,28.24
2019-03-12T23:17:50.570Z,28.44
2019-03-12T23:20:18.798Z,28.61
2019-03-12T23:22:46.212Z,28.85
2019-03-12T23:25:13.623Z,29.03
2019-03-12T23:27:41.033Z,29.22
2019-03-12T23:30:10.958Z,29.31
2019-03-12T23:32:38.367Z,29.40
2019-03-12T23:35:05.804Z,29.33
2019-03-12T23:37:33.195Z,29.62
2019-03-12T23:40:00.769Z,29.44
2019-03-12T23:42:28.191Z,29.92
2019-03-12T23:44:56.101Z,33.77
2019-03-12T23:47:23.599Z,36.63
2019-03-12T23:49:50.998Z,37.29
2019-03-12T23:52:17.932Z,38.37
2019-03-12T23:54:46.316Z,41.11
2019-03-12T23:57:13.740Z,44.22
2019-03-12T23:59:41.152Z,46.52
